Anthem, Arizona
Current Conditions -  °F | °C
As of 1:53 AM on Friday 24 Oct 2014 (Local Time) from KDVT Reporting Station
Clear Clear  
Wind Chill: 69°   Ceiling: Unl
Heat Index: 69°   Visibility: 10mi
Dew Point: 45°   Wind: 0mph
Humidity: 42%   Direction: NA
Pressure: 30.01"   Gusts: NA
Location:  33.8348°N, 112.071°W
Report Text: KDVT 240853Z 00000KT 10SM CLR 21/07 A3001 RMK AO2 SLP138 T02060072 51004
Loading
Personal Weather Stations






























Interactive Weather Map New forecast layout! Learn more

10-Day Weather Forecast

Advertisements
Track Severe Weather on mobile